College Park, Nevada
Current Conditions -  °F | °C
As of 6:53 AM on Saturday 01 Nov 2014 (Local Time) from KVGT Reporting Station
Overcast Overcast  
Wind Chill: 58°   Ceiling: 6500
Heat Index: 58°   Visibility: 10mi
Dew Point: 35°   Wind: 22mph
Humidity: 42%   Direction: 250°WSW
Pressure: 29.76"   Gusts: 33mph
Location:  36.2257°N, 115.178°W
Report Text: KVGT 011353Z 25019G29KT 10SM BKN065 OVC090 14/02 A2976 RMK AO2 PK WND 24033/1324 SLP077 T01440017
Loading
Personal Weather Stations






























Interactive Weather Map
Tropical Storm Tracking
New forecast layout! Learn more

10-Day Weather Forecast

Advertisements
Track Severe Weather on mobile